sensor_id;sensor_type;location;lat;lon;timestamp;P1;durP1;ratioP1;P2;durP2;ratioP2
65370;SDS011;58485;59.934;30.352;2022-07-23T00:00:08;9.82;;;9.13;;
65370;SDS011;58485;59.934;30.352;2022-07-23T00:01:01;10.68;;;9.98;;
65370;SDS011;58485;59.934;30.352;2022-07-23T00:01:52;10.57;;;9.88;;
65370;SDS011;58485;59.934;30.352;2022-07-23T00:02:45;10.82;;;10.05;;
65370;SDS011;58485;59.934;30.352;2022-07-23T00:03:36;11.00;;;10.20;;
65370;SDS011;58485;59.934;30.352;2022-07-23T00:04:28;11.10;;;10.30;;
65370;SDS011;58485;59.934;30.352;2022-07-23T00:05:20;10.40;;;9.60;;
65370;SDS011;58485;59.934;30.352;2022-07-23T00:06:12;10.63;;;9.82;;
65370;SDS011;58485;59.934;30.352;2022-07-23T00:07:03;10.38;;;9.55;;
65370;SDS011;58485;59.934;30.352;2022-07-23T00:07:57;9.73;;;9.02;;
65370;SDS011;58485;59.934;30.352;2022-07-23T00:08:48;9.10;;;8.60;;
65370;SDS011;58485;59.934;30.352;2022-07-23T00:09:41;9.93;;;9.32;;
65370;SDS011;58485;59.934;30.352;2022-07-23T00:10:32;9.88;;;9.27;;
65370;SDS011;58485;59.934;30.352;2022-07-23T00:11:24;10.38;;;9.68;;
65370;SDS011;58485;59.934;30.352;2022-07-23T00:12:16;10.63;;;9.77;;
65370;SDS011;58485;59.934;30.352;2022-07-23T00:13:08;10.25;;;9.45;;
65370;SDS011;58485;59.934;30.352;2022-07-23T00:14:00;11.20;;;10.15;;
65370;SDS011;58485;59.934;30.352;2022-07-23T00:14:52;10.45;;;9.45;;
65370;SDS011;58485;59.934;30.352;2022-07-23T00:15:43;9.77;;;9.07;;
65370;SDS011;58485;59.934;30.352;2022-07-23T00:16:35;10.60;;;9.88;;
65370;SDS011;58485;59.934;30.352;2022-07-23T00:17:27;10.55;;;9.70;;
65370;SDS011;58485;59.934;30.352;2022-07-23T00:18:19;10.90;;;10.10;;
65370;SDS011;58485;59.934;30.352;2022-07-23T00:19:10;10.57;;;9.88;;
65370;SDS011;58485;59.934;30.352;2022-07-23T00:20:02;11.75;;;10.77;;
65370;SDS011;58485;59.934;30.352;2022-07-23T00:20:55;10.90;;;9.93;;
65370;SDS011;58485;59.934;30.352;2022-07-23T00:21:47;10.10;;;9.45;;
65370;SDS011;58485;59.934;30.352;2022-07-23T00:22:45;10.50;;;9.70;;
65370;SDS011;58485;59.934;30.352;2022-07-23T00:23:39;10.30;;;9.70;;
65370;SDS011;58485;59.934;30.352;2022-07-23T00:24:30;9.98;;;9.15;;
65370;SDS011;58485;59.934;30.352;2022-07-23T00:25:23;10.80;;;9.93;;
65370;SDS011;58485;59.934;30.352;2022-07-23T00:26:15;9.93;;;9.23;;
65370;SDS011;58485;59.934;30.352;2022-07-23T00:27:07;10.32;;;9.63;;
65370;SDS011;58485;59.934;30.352;2022-07-23T00:27:59;9.82;;;9.23;;
65370;SDS011;58485;59.934;30.352;2022-07-23T00:28:52;10.48;;;9.55;;
65370;SDS011;58485;59.934;30.352;2022-07-23T00:29:43;10.20;;;9.50;;
65370;SDS011;58485;59.934;30.352;2022-07-23T00:30:35;9.65;;;9.05;;
65370;SDS011;58485;59.934;30.352;2022-07-23T00:31:27;10.13;;;9.32;;
65370;SDS011;58485;59.934;30.352;2022-07-23T00:32:19;10.25;;;9.30;;
65370;SDS011;58485;59.934;30.352;2022-07-23T00:33:11;10.07;;;9.43;;
65370;SDS011;58485;59.934;30.352;2022-07-23T00:34:04;9.75;;;9.10;;
65370;SDS011;58485;59.934;30.352;2022-07-23T00:34:55;9.77;;;9.05;;
65370;SDS011;58485;59.934;30.352;2022-07-23T00:35:48;9.57;;;8.90;;
65370;SDS011;58485;59.934;30.352;2022-07-23T00:36:39;9.43;;;8.63;;
65370;SDS011;58485;59.934;30.352;2022-07-23T00:37:31;9.73;;;9.13;;
65370;SDS011;58485;59.934;30.352;2022-07-23T00:38:23;9.68;;;8.93;;
65370;SDS011;58485;59.934;30.352;2022-07-23T00:39:16;9.50;;;8.80;;
65370;SDS011;58485;59.934;30.352;2022-07-23T00:40:08;9.77;;;8.93;;
65370;SDS011;58485;59.934;30.352;2022-07-23T00:41:02;9.20;;;8.60;;
65370;SDS011;58485;59.934;30.352;2022-07-23T00:41:53;9.43;;;8.82;;
65370;SDS011;58485;59.934;30.352;2022-07-23T00:42:46;9.30;;;8.70;;
65370;SDS011;58485;59.934;30.352;2022-07-23T00:43:38;9.38;;;8.77;;
65370;SDS011;58485;59.934;30.352;2022-07-23T00:44:30;9.13;;;8.43;;
65370;SDS011;58485;59.934;30.352;2022-07-23T00:45:21;9.75;;;9.15;;
65370;SDS011;58485;59.934;30.352;2022-07-23T00:46:18;9.07;;;8.48;;
65370;SDS011;58485;59.934;30.352;2022-07-23T00:47:10;9.15;;;8.30;;
65370;SDS011;58485;59.934;30.352;2022-07-23T00:48:02;8.35;;;7.85;;
65370;SDS011;58485;59.934;30.352;2022-07-23T00:48:54;8.75;;;8.25;;
65370;SDS011;58485;59.934;30.352;2022-07-23T00:49:46;9.57;;;8.88;;
65370;SDS011;58485;59.934;30.352;2022-07-23T00:50:37;9.48;;;8.88;;
65370;SDS011;58485;59.934;30.352;2022-07-23T00:51:29;8.75;;;8.10;;
65370;SDS011;58485;59.934;30.352;2022-07-23T00:52:21;8.35;;;7.75;;
65370;SDS011;58485;59.934;30.352;2022-07-23T00:53:13;8.95;;;8.27;;
65370;SDS011;58485;59.934;30.352;2022-07-23T00:54:05;8.95;;;8.35;;
65370;SDS011;58485;59.934;30.352;2022-07-23T00:54:59;9.32;;;8.60;;
65370;SDS011;58485;59.934;30.352;2022-07-23T00:55:50;8.38;;;7.82;;
65370;SDS011;58485;59.934;30.352;2022-07-23T00:56:43;8.30;;;7.80;;
65370;SDS011;58485;59.934;30.352;2022-07-23T00:57:35;9.07;;;8.48;;
65370;SDS011;58485;59.934;30.352;2022-07-23T00:58:29;8.43;;;7.85;;
65370;SDS011;58485;59.934;30.352;2022-07-23T00:59:21;8.90;;;8.35;;
65370;SDS011;58485;59.934;30.352;2022-07-23T01:00:13;8.90;;;8.30;;
65370;SDS011;58485;59.934;30.352;2022-07-23T01:01:06;9.25;;;8.55;;
65370;SDS011;58485;59.934;30.352;2022-07-23T01:01:59;8.75;;;8.15;;
65370;SDS011;58485;59.934;30.352;2022-07-23T01:02:50;9.25;;;8.65;;
65370;SDS011;58485;59.934;30.352;2022-07-23T01:03:43;8.90;;;8.30;;
65370;SDS011;58485;59.934;30.352;2022-07-23T01:04:34;8.95;;;8.35;;
65370;SDS011;58485;59.934;30.352;2022-07-23T01:05:27;9.10;;;8.57;;
65370;SDS011;58485;59.934;30.352;2022-07-23T01:06:18;9.35;;;8.60;;
65370;SDS011;58485;59.934;30.352;2022-07-23T01:07:11;8.52;;;8.00;;
65370;SDS011;58485;59.934;30.352;2022-07-23T01:08:02;8.85;;;8.25;;
65370;SDS011;58485;59.934;30.352;2022-07-23T01:08:55;8.70;;;8.20;;
65370;SDS011;58485;59.934;30.352;2022-07-23T01:09:46;9.45;;;8.55;;
65370;SDS011;58485;59.934;30.352;2022-07-23T01:10:40;8.43;;;7.93;;
65370;SDS011;58485;59.934;30.352;2022-07-23T01:11:31;15.95;;;8.55;;
65370;SDS011;58485;59.934;30.352;2022-07-23T01:12:25;9.07;;;8.38;;
65370;SDS011;58485;59.934;30.352;2022-07-23T01:13:16;8.60;;;7.78;;
65370;SDS011;58485;59.934;30.352;2022-07-23T01:14:09;8.85;;;8.27;;
65370;SDS011;58485;59.934;30.352;2022-07-23T01:15:02;8.32;;;7.72;;
65370;SDS011;58485;59.934;30.352;2022-07-23T01:15:56;8.80;;;8.20;;
65370;SDS011;58485;59.934;30.352;2022-07-23T01:16:47;8.73;;;8.23;;
65370;SDS011;58485;59.934;30.352;2022-07-23T01:17:41;8.77;;;8.25;;
65370;SDS011;58485;59.934;30.352;2022-07-23T01:18:32;8.63;;;8.10;;
65370;SDS011;58485;59.934;30.352;2022-07-23T01:19:24;8.75;;;8.10;;
65370;SDS011;58485;59.934;30.352;2022-07-23T01:20:15;8.07;;;7.57;;
65370;SDS011;58485;59.934;30.352;2022-07-23T01:21:08;7.97;;;7.38;;
65370;SDS011;58485;59.934;30.352;2022-07-23T01:22:03;7.93;;;7.40;;
65370;SDS011;58485;59.934;30.352;2022-07-23T01:22:57;8.27;;;7.78;;
65370;SDS011;58485;59.934;30.352;2022-07-23T01:23:48;9.05;;;8.25;;
65370;SDS011;58485;59.934;30.352;2022-07-23T01:24:40;8.45;;;7.75;;
65370;SDS011;58485;59.934;30.352;2022-07-23T01:25:32;8.73;;;8.00;;
65370;SDS011;58485;59.934;30.352;2022-07-23T01:26:24;8.57;;;7.97;;
65370;SDS011;58485;59.934;30.352;2022-07-23T01:27:15;8.10;;;7.43;;
65370;SDS011;58485;59.934;30.352;2022-07-23T01:28:09;8.18;;;7.55;;
65370;SDS011;58485;59.934;30.352;2022-07-23T01:29:01;8.30;;;7.75;;
65370;SDS011;58485;59.934;30.352;2022-07-23T01:29:54;8.05;;;7.45;;
65370;SDS011;58485;59.934;30.352;2022-07-23T01:30:48;8.30;;;7.80;;
65370;SDS011;58485;59.934;30.352;2022-07-23T01:31:41;8.35;;;7.75;;
65370;SDS011;58485;59.934;30.352;2022-07-23T01:32:32;7.45;;;6.95;;
65370;SDS011;58485;59.934;30.352;2022-07-23T01:33:25;8.63;;;7.13;;
65370;SDS011;58485;59.934;30.352;2022-07-23T01:34:16;7.88;;;7.28;;
65370;SDS011;58485;59.934;30.352;2022-07-23T01:35:08;7.88;;;7.35;;
65370;SDS011;58485;59.934;30.352;2022-07-23T01:36:00;8.05;;;7.45;;
65370;SDS011;58485;59.934;30.352;2022-07-23T01:36:52;8.65;;;7.85;;
65370;SDS011;58485;59.934;30.352;2022-07-23T01:37:43;8.32;;;7.72;;
65370;SDS011;58485;59.934;30.352;2022-07-23T01:38:37;7.95;;;7.40;;
65370;SDS011;58485;59.934;30.352;2022-07-23T01:39:28;8.50;;;7.85;;
65370;SDS011;58485;59.934;30.352;2022-07-23T01:40:20;7.40;;;6.95;;
65370;SDS011;58485;59.934;30.352;2022-07-23T01:41:12;8.13;;;7.45;;
65370;SDS011;58485;59.934;30.352;2022-07-23T01:42:04;8.20;;;7.22;;
65370;SDS011;58485;59.934;30.352;2022-07-23T01:42:56;8.13;;;7.57;;
65370;SDS011;58485;59.934;30.352;2022-07-23T01:43:48;7.68;;;7.28;;
65370;SDS011;58485;59.934;30.352;2022-07-23T01:44:39;7.53;;;7.03;;
65370;SDS011;58485;59.934;30.352;2022-07-23T01:45:31;7.47;;;6.97;;
65370;SDS011;58485;59.934;30.352;2022-07-23T01:46:23;8.15;;;7.65;;
65370;SDS011;58485;59.934;30.352;2022-07-23T01:47:15;7.78;;;7.10;;
65370;SDS011;58485;59.934;30.352;2022-07-23T01:48:07;8.05;;;7.40;;
65370;SDS011;58485;59.934;30.352;2022-07-23T01:48:59;7.72;;;7.18;;
65370;SDS011;58485;59.934;30.352;2022-07-23T01:49:50;7.18;;;6.78;;
65370;SDS011;58485;59.934;30.352;2022-07-23T01:50:43;7.45;;;6.95;;
65370;SDS011;58485;59.934;30.352;2022-07-23T01:51:34;7.25;;;6.65;;
65370;SDS011;58485;59.934;30.352;2022-07-23T01:52:27;7.90;;;7.15;;
65370;SDS011;58485;59.934;30.352;2022-07-23T01:53:18;7.95;;;7.43;;
65370;SDS011;58485;59.934;30.352;2022-07-23T01:54:12;7.53;;;6.93;;
65370;SDS011;58485;59.934;30.352;2022-07-23T01:55:03;7.57;;;7.05;;
65370;SDS011;58485;59.934;30.352;2022-07-23T01:55:57;7.32;;;6.93;;
65370;SDS011;58485;59.934;30.352;2022-07-23T01:56:48;6.97;;;6.57;;
65370;SDS011;58485;59.934;30.352;2022-07-23T01:57:40;7.93;;;7.30;;
65370;SDS011;58485;59.934;30.352;2022-07-23T01:58:32;7.60;;;7.00;;
65370;SDS011;58485;59.934;30.352;2022-07-23T01:59:24;7.50;;;7.00;;
65370;SDS011;58485;59.934;30.352;2022-07-23T02:00:15;7.15;;;6.65;;
65370;SDS011;58485;59.934;30.352;2022-07-23T02:01:08;7.32;;;6.80;;
65370;SDS011;58485;59.934;30.352;2022-07-23T02:01:59;7.45;;;6.85;;
65370;SDS011;58485;59.934;30.352;2022-07-23T02:02:51;7.70;;;7.20;;
65370;SDS011;58485;59.934;30.352;2022-07-23T02:03:42;7.55;;;6.85;;
65370;SDS011;58485;59.934;30.352;2022-07-23T02:04:34;7.40;;;6.93;;
65370;SDS011;58485;59.934;30.352;2022-07-23T02:05:26;6.80;;;6.38;;
65370;SDS011;58485;59.934;30.352;2022-07-23T02:06:20;7.40;;;7.00;;
65370;SDS011;58485;59.934;30.352;2022-07-23T02:07:11;7.53;;;7.13;;
65370;SDS011;58485;59.934;30.352;2022-07-23T02:08:04;7.53;;;6.93;;
65370;SDS011;58485;59.934;30.352;2022-07-23T02:08:55;8.20;;;7.65;;
65370;SDS011;58485;59.934;30.352;2022-07-23T02:09:49;7.78;;;6.75;;
65370;SDS011;58485;59.934;30.352;2022-07-23T02:10:40;7.40;;;6.65;;
65370;SDS011;58485;59.934;30.352;2022-07-23T02:11:32;8.00;;;7.30;;
65370;SDS011;58485;59.934;30.352;2022-07-23T02:12:24;6.90;;;6.40;;
65370;SDS011;58485;59.934;30.352;2022-07-23T02:13:16;7.70;;;7.00;;
65370;SDS011;58485;59.934;30.352;2022-07-23T02:14:08;7.03;;;6.50;;
65370;SDS011;58485;59.934;30.352;2022-07-23T02:15:00;7.55;;;7.05;;
65370;SDS011;58485;59.934;30.352;2022-07-23T02:15:52;8.52;;;7.70;;
65370;SDS011;58485;59.934;30.352;2022-07-23T02:16:44;7.63;;;7.03;;
65370;SDS011;58485;59.934;30.352;2022-07-23T02:17:35;7.22;;;6.80;;
65370;SDS011;58485;59.934;30.352;2022-07-23T02:18:27;6.57;;;6.18;;
65370;SDS011;58485;59.934;30.352;2022-07-23T02:19:19;7.53;;;7.10;;
65370;SDS011;58485;59.934;30.352;2022-07-23T02:20:11;7.68;;;7.07;;
65370;SDS011;58485;59.934;30.352;2022-07-23T02:21:04;7.60;;;7.10;;
65370;SDS011;58485;59.934;30.352;2022-07-23T02:21:55;6.60;;;6.20;;
65370;SDS011;58485;59.934;30.352;2022-07-23T02:22:48;7.35;;;6.85;;
65370;SDS011;58485;59.934;30.352;2022-07-23T02:23:39;7.13;;;6.68;;
65370;SDS011;58485;59.934;30.352;2022-07-23T02:24:31;7.47;;;6.97;;
65370;SDS011;58485;59.934;30.352;2022-07-23T02:25:24;7.53;;;6.85;;
65370;SDS011;58485;59.934;30.352;2022-07-23T02:26:16;6.82;;;6.43;;
65370;SDS011;58485;59.934;30.352;2022-07-23T02:27:08;6.63;;;6.30;;
65370;SDS011;58485;59.934;30.352;2022-07-23T02:28:00;7.47;;;7.00;;
65370;SDS011;58485;59.934;30.352;2022-07-23T02:28:51;6.25;;;5.95;;
65370;SDS011;58485;59.934;30.352;2022-07-23T02:29:44;7.00;;;6.60;;
65370;SDS011;58485;59.934;30.352;2022-07-23T02:30:35;6.82;;;6.38;;
65370;SDS011;58485;59.934;30.352;2022-07-23T02:31:28;7.32;;;6.82;;
65370;SDS011;58485;59.934;30.352;2022-07-23T02:32:19;7.30;;;6.75;;
65370;SDS011;58485;59.934;30.352;2022-07-23T02:33:12;7.22;;;6.82;;
65370;SDS011;58485;59.934;30.352;2022-07-23T02:34:03;7.20;;;6.60;;
65370;SDS011;58485;59.934;30.352;2022-07-23T02:34:55;7.05;;;6.45;;
65370;SDS011;58485;59.934;30.352;2022-07-23T02:35:47;7.28;;;6.78;;
65370;SDS011;58485;59.934;30.352;2022-07-23T02:36:39;7.10;;;6.70;;
65370;SDS011;58485;59.934;30.352;2022-07-23T02:37:30;6.95;;;6.35;;
65370;SDS011;58485;59.934;30.352;2022-07-23T02:38:23;7.65;;;7.10;;
65370;SDS011;58485;59.934;30.352;2022-07-23T02:39:14;7.30;;;6.72;;
65370;SDS011;58485;59.934;30.352;2022-07-23T02:40:07;7.03;;;6.43;;
65370;SDS011;58485;59.934;30.352;2022-07-23T02:41:00;6.82;;;6.25;;
65370;SDS011;58485;59.934;30.352;2022-07-23T02:41:53;6.80;;;6.40;;
65370;SDS011;58485;59.934;30.352;2022-07-23T02:42:44;6.47;;;6.07;;
65370;SDS011;58485;59.934;30.352;2022-07-23T02:43:36;6.70;;;6.30;;
65370;SDS011;58485;59.934;30.352;2022-07-23T02:44:27;6.90;;;6.43;;
65370;SDS011;58485;59.934;30.352;2022-07-23T02:45:19;6.85;;;6.45;;
65370;SDS011;58485;59.934;30.352;2022-07-23T02:46:11;6.40;;;6.00;;
65370;SDS011;58485;59.934;30.352;2022-07-23T02:47:03;6.72;;;6.20;;
65370;SDS011;58485;59.934;30.352;2022-07-23T02:47:55;6.50;;;6.07;;
65370;SDS011;58485;59.934;30.352;2022-07-23T02:48:48;6.65;;;6.25;;
65370;SDS011;58485;59.934;30.352;2022-07-23T02:49:39;6.50;;;6.10;;
65370;SDS011;58485;59.934;30.352;2022-07-23T02:50:31;6.82;;;6.43;;
65370;SDS011;58485;59.934;30.352;2022-07-23T02:51:22;6.55;;;6.15;;
65370;SDS011;58485;59.934;30.352;2022-07-23T02:52:15;7.05;;;6.45;;
65370;SDS011;58485;59.934;30.352;2022-07-23T02:53:06;6.95;;;6.45;;
65370;SDS011;58485;59.934;30.352;2022-07-23T02:53:58;6.80;;;6.40;;
65370;SDS011;58485;59.934;30.352;2022-07-23T02:54:49;6.75;;;6.35;;
65370;SDS011;58485;59.934;30.352;2022-07-23T02:55:42;6.63;;;6.13;;
65370;SDS011;58485;59.934;30.352;2022-07-23T02:56:34;6.95;;;6.30;;
65370;SDS011;58485;59.934;30.352;2022-07-23T02:57:26;7.43;;;6.82;;
65370;SDS011;58485;59.934;30.352;2022-07-23T02:58:18;7.07;;;6.57;;
65370;SDS011;58485;59.934;30.352;2022-07-23T02:59:10;6.10;;;5.70;;
65370;SDS011;58485;59.934;30.352;2022-07-23T03:00:02;7.10;;;6.60;;
65370;SDS011;58485;59.934;30.352;2022-07-23T03:00:56;6.80;;;6.30;;
65370;SDS011;58485;59.934;30.352;2022-07-23T03:01:47;6.68;;;6.15;;
65370;SDS011;58485;59.934;30.352;2022-07-23T03:02:39;6.53;;;6.03;;
65370;SDS011;58485;59.934;30.352;2022-07-23T03:03:30;7.30;;;6.65;;
65370;SDS011;58485;59.934;30.352;2022-07-23T03:04:23;7.32;;;6.13;;
65370;SDS011;58485;59.934;30.352;2022-07-23T03:05:14;6.65;;;6.25;;
65370;SDS011;58485;59.934;30.352;2022-07-23T03:06:06;6.70;;;6.30;;
65370;SDS011;58485;59.934;30.352;2022-07-23T03:06:58;6.60;;;6.20;;
65370;SDS011;58485;59.934;30.352;2022-07-23T03:07:50;7.15;;;6.65;;
65370;SDS011;58485;59.934;30.352;2022-07-23T03:08:41;6.40;;;6.00;;
65370;SDS011;58485;59.934;30.352;2022-07-23T03:09:34;6.68;;;6.28;;
65370;SDS011;58485;59.934;30.352;2022-07-23T03:10:26;6.50;;;5.90;;
65370;SDS011;58485;59.934;30.352;2022-07-23T03:11:18;6.80;;;6.22;;
65370;SDS011;58485;59.934;30.352;2022-07-23T03:12:10;6.30;;;5.95;;
65370;SDS011;58485;59.934;30.352;2022-07-23T03:13:03;7.35;;;6.57;;
65370;SDS011;58485;59.934;30.352;2022-07-23T03:13:54;5.90;;;5.60;;
65370;SDS011;58485;59.934;30.352;2022-07-23T03:14:46;7.38;;;6.68;;
65370;SDS011;58485;59.934;30.352;2022-07-23T03:15:37;6.75;;;6.18;;
65370;SDS011;58485;59.934;30.352;2022-07-23T03:16:30;6.85;;;6.35;;
65370;SDS011;58485;59.934;30.352;2022-07-23T03:17:21;8.40;;;6.47;;
65370;SDS011;58485;59.934;30.352;2022-07-23T03:18:13;6.78;;;6.28;;
65370;SDS011;58485;59.934;30.352;2022-07-23T03:19:04;6.88;;;6.43;;
65370;SDS011;58485;59.934;30.352;2022-07-23T03:19:56;6.88;;;6.28;;
65370;SDS011;58485;59.934;30.352;2022-07-23T03:20:48;6.85;;;6.28;;
65370;SDS011;58485;59.934;30.352;2022-07-23T03:21:40;6.70;;;6.18;;
65370;SDS011;58485;59.934;30.352;2022-07-23T03:22:31;6.43;;;6.03;;
65370;SDS011;58485;59.934;30.352;2022-07-23T03:23:23;7.05;;;6.43;;
65370;SDS011;58485;59.934;30.352;2022-07-23T03:24:15;6.63;;;6.15;;
65370;SDS011;58485;59.934;30.352;2022-07-23T03:25:08;6.43;;;5.90;;
65370;SDS011;58485;59.934;30.352;2022-07-23T03:26:00;6.70;;;6.10;;
65370;SDS011;58485;59.934;30.352;2022-07-23T03:26:51;6.40;;;5.90;;
65370;SDS011;58485;59.934;30.352;2022-07-23T03:27:45;6.70;;;6.25;;
65370;SDS011;58485;59.934;30.352;2022-07-23T03:28:36;6.35;;;5.95;;
65370;SDS011;58485;59.934;30.352;2022-07-23T03:29:28;6.43;;;5.93;;
65370;SDS011;58485;59.934;30.352;2022-07-23T03:30:20;6.93;;;6.35;;
65370;SDS011;58485;59.934;30.352;2022-07-23T03:31:12;6.85;;;6.28;;
65370;SDS011;58485;59.934;30.352;2022-07-23T03:32:03;6.70;;;6.28;;
65370;SDS011;58485;59.934;30.352;2022-07-23T03:32:56;6.50;;;6.10;;
65370;SDS011;58485;59.934;30.352;2022-07-23T03:33:47;6.60;;;6.15;;
65370;SDS011;58485;59.934;30.352;2022-07-23T03:34:39;6.40;;;6.00;;
65370;SDS011;58485;59.934;30.352;2022-07-23T03:35:31;6.45;;;5.90;;
65370;SDS011;58485;59.934;30.352;2022-07-23T03:36:23;6.55;;;6.05;;
65370;SDS011;58485;59.934;30.352;2022-07-23T03:37:16;6.78;;;6.28;;
65370;SDS011;58485;59.934;30.352;2022-07-23T03:38:07;6.38;;;5.78;;
65370;SDS011;58485;59.934;30.352;2022-07-23T03:39:00;6.75;;;6.35;;
65370;SDS011;58485;59.934;30.352;2022-07-23T03:39:51;6.50;;;6.10;;
65370;SDS011;58485;59.934;30.352;2022-07-23T03:40:43;7.82;;;6.28;;
65370;SDS011;58485;59.934;30.352;2022-07-23T03:41:34;6.93;;;6.28;;
65370;SDS011;58485;59.934;30.352;2022-07-23T03:42:26;5.70;;;5.40;;
65370;SDS011;58485;59.934;30.352;2022-07-23T03:43:19;6.38;;;5.90;;
65370;SDS011;58485;59.934;30.352;2022-07-23T03:44:11;6.53;;;6.13;;
65370;SDS011;58485;59.934;30.352;2022-07-23T03:45:03;6.15;;;5.65;;
65370;SDS011;58485;59.934;30.352;2022-07-23T03:45:56;6.20;;;5.70;;
65370;SDS011;58485;59.934;30.352;2022-07-23T03:46:48;5.82;;;5.43;;
65370;SDS011;58485;59.934;30.352;2022-07-23T03:47:40;6.05;;;5.65;;
65370;SDS011;58485;59.934;30.352;2022-07-23T03:48:33;6.07;;;5.57;;
65370;SDS011;58485;59.934;30.352;2022-07-23T03:49:25;6.45;;;6.03;;
65370;SDS011;58485;59.934;30.352;2022-07-23T03:50:16;6.20;;;5.75;;
65370;SDS011;58485;59.934;30.352;2022-07-23T03:51:09;6.35;;;5.95;;
65370;SDS011;58485;59.934;30.352;2022-07-23T03:52:00;6.88;;;6.47;;
65370;SDS011;58485;59.934;30.352;2022-07-23T03:52:52;6.40;;;6.00;;
65370;SDS011;58485;59.934;30.352;2022-07-23T03:53:44;6.20;;;5.80;;
65370;SDS011;58485;59.934;30.352;2022-07-23T03:54:39;5.78;;;5.47;;
65370;SDS011;58485;59.934;30.352;2022-07-23T03:55:30;7.60;;;7.00;;
65370;SDS011;58485;59.934;30.352;2022-07-23T03:56:22;6.28;;;5.70;;
65370;SDS011;58485;59.934;30.352;2022-07-23T03:57:13;6.40;;;6.00;;
65370;SDS011;58485;59.934;30.352;2022-07-23T03:58:06;6.10;;;5.70;;
65370;SDS011;58485;59.934;30.352;2022-07-23T03:58:59;7.18;;;6.45;;
65370;SDS011;58485;59.934;30.352;2022-07-23T03:59:51;6.65;;;6.15;;
65370;SDS011;58485;59.934;30.352;2022-07-23T04:00:42;6.10;;;5.50;;
65370;SDS011;58485;59.934;30.352;2022-07-23T04:01:34;6.50;;;6.03;;
65370;SDS011;58485;59.934;30.352;2022-07-23T04:02:26;6.15;;;5.60;;
65370;SDS011;58485;59.934;30.352;2022-07-23T04:03:18;7.00;;;6.18;;
65370;SDS011;58485;59.934;30.352;2022-07-23T04:04:09;6.65;;;6.25;;
65370;SDS011;58485;59.934;30.352;2022-07-23T04:05:01;6.03;;;5.63;;
65370;SDS011;58485;59.934;30.352;2022-07-23T04:05:53;5.72;;;5.32;;
65370;SDS011;58485;59.934;30.352;2022-07-23T04:06:45;6.15;;;5.75;;
65370;SDS011;58485;59.934;30.352;2022-07-23T04:07:37;5.97;;;5.47;;
65370;SDS011;58485;59.934;30.352;2022-07-23T04:08:30;6.05;;;5.75;;
65370;SDS011;58485;59.934;30.352;2022-07-23T04:09:21;5.85;;;5.45;;
65370;SDS011;58485;59.934;30.352;2022-07-23T04:10:13;6.07;;;5.68;;
65370;SDS011;58485;59.934;30.352;2022-07-23T04:11:05;7.88;;;5.65;;
65370;SDS011;58485;59.934;30.352;2022-07-23T04:11:57;6.50;;;6.00;;
65370;SDS011;58485;59.934;30.352;2022-07-23T04:12:48;6.13;;;5.72;;
65370;SDS011;58485;59.934;30.352;2022-07-23T04:13:40;5.78;;;5.38;;
65370;SDS011;58485;59.934;30.352;2022-07-23T04:14:33;5.88;;;5.47;;
65370;SDS011;58485;59.934;30.352;2022-07-23T04:15:26;7.43;;;6.00;;
65370;SDS011;58485;59.934;30.352;2022-07-23T04:16:17;6.20;;;5.80;;
65370;SDS011;58485;59.934;30.352;2022-07-23T04:17:10;8.70;;;5.60;;
65370;SDS011;58485;59.934;30.352;2022-07-23T04:18:01;6.55;;;6.15;;
65370;SDS011;58485;59.934;30.352;2022-07-23T04:18:53;5.65;;;5.13;;
65370;SDS011;58485;59.934;30.352;2022-07-23T04:19:45;6.97;;;6.10;;
65370;SDS011;58485;59.934;30.352;2022-07-23T04:20:37;6.15;;;5.75;;
65370;SDS011;58485;59.934;30.352;2022-07-23T04:21:28;5.95;;;5.63;;
65370;SDS011;58485;59.934;30.352;2022-07-23T04:22:20;6.57;;;6.18;;
65370;SDS011;58485;59.934;30.352;2022-07-23T04:23:12;6.70;;;6.10;;
65370;SDS011;58485;59.934;30.352;2022-07-23T04:24:04;6.28;;;5.80;;
65370;SDS011;58485;59.934;30.352;2022-07-23T04:24:55;6.15;;;5.75;;
65370;SDS011;58485;59.934;30.352;2022-07-23T04:25:48;7.00;;;6.25;;
65370;SDS011;58485;59.934;30.352;2022-07-23T04:26:39;6.00;;;5.60;;
65370;SDS011;58485;59.934;30.352;2022-07-23T04:27:31;6.55;;;5.93;;
65370;SDS011;58485;59.934;30.352;2022-07-23T04:28:23;6.22;;;5.78;;
65370;SDS011;58485;59.934;30.352;2022-07-23T04:29:15;6.55;;;6.15;;
65370;SDS011;58485;59.934;30.352;2022-07-23T04:30:09;6.57;;;6.03;;
65370;SDS011;58485;59.934;30.352;2022-07-23T04:31:01;5.60;;;5.20;;
65370;SDS011;58485;59.934;30.352;2022-07-23T04:31:53;6.65;;;6.15;;
65370;SDS011;58485;59.934;30.352;2022-07-23T04:32:45;6.13;;;5.60;;
65370;SDS011;58485;59.934;30.352;2022-07-23T04:33:36;6.05;;;5.65;;
65370;SDS011;58485;59.934;30.352;2022-07-23T04:34:28;6.57;;;6.03;;
65370;SDS011;58485;59.934;30.352;2022-07-23T04:35:20;6.05;;;5.65;;
65370;SDS011;58485;59.934;30.352;2022-07-23T04:36:12;7.13;;;6.47;;
65370;SDS011;58485;59.934;30.352;2022-07-23T04:37:03;5.85;;;5.45;;
65370;SDS011;58485;59.934;30.352;2022-07-23T04:37:56;6.25;;;5.63;;
65370;SDS011;58485;59.934;30.352;2022-07-23T04:38:47;6.63;;;6.22;;
65370;SDS011;58485;59.934;30.352;2022-07-23T04:39:39;6.07;;;5.57;;
65370;SDS011;58485;59.934;30.352;2022-07-23T04:40:30;5.88;;;5.47;;
65370;SDS011;58485;59.934;30.352;2022-07-23T04:41:23;5.78;;;5.35;;
65370;SDS011;58485;59.934;30.352;2022-07-23T04:42:14;14.45;;;5.55;;
65370;SDS011;58485;59.934;30.352;2022-07-23T04:43:06;6.57;;;5.97;;
65370;SDS011;58485;59.934;30.352;2022-07-23T04:43:57;6.15;;;5.85;;
65370;SDS011;58485;59.934;30.352;2022-07-23T04:44:50;6.57;;;6.15;;
65370;SDS011;58485;59.934;30.352;2022-07-23T04:45:42;5.63;;;5.28;;
65370;SDS011;58485;59.934;30.352;2022-07-23T04:46:34;6.25;;;5.65;;
65370;SDS011;58485;59.934;30.352;2022-07-23T04:47:25;5.85;;;5.45;;
65370;SDS011;58485;59.934;30.352;2022-07-23T04:48:18;6.60;;;5.82;;
65370;SDS011;58485;59.934;30.352;2022-07-23T04:49:09;5.70;;;5.30;;
65370;SDS011;58485;59.934;30.352;2022-07-23T04:50:01;5.30;;;5.00;;
65370;SDS011;58485;59.934;30.352;2022-07-23T04:50:53;6.40;;;5.80;;
65370;SDS011;58485;59.934;30.352;2022-07-23T04:51:46;6.30;;;5.80;;
65370;SDS011;58485;59.934;30.352;2022-07-23T04:52:37;8.93;;;5.45;;
65370;SDS011;58485;59.934;30.352;2022-07-23T04:53:29;6.35;;;5.82;;
65370;SDS011;58485;59.934;30.352;2022-07-23T04:54:20;6.18;;;5.78;;
65370;SDS011;58485;59.934;30.352;2022-07-23T04:55:12;5.40;;;5.10;;
65370;SDS011;58485;59.934;30.352;2022-07-23T04:56:04;5.53;;;5.13;;
65370;SDS011;58485;59.934;30.352;2022-07-23T04:56:56;7.10;;;5.53;;
65370;SDS011;58485;59.934;30.352;2022-07-23T04:57:48;5.47;;;5.18;;
65370;SDS011;58485;59.934;30.352;2022-07-23T04:58:40;6.43;;;5.78;;
65370;SDS011;58485;59.934;30.352;2022-07-23T04:59:31;6.88;;;6.38;;
65370;SDS011;58485;59.934;30.352;2022-07-23T05:00:23;6.32;;;5.82;;
65370;SDS011;58485;59.934;30.352;2022-07-23T05:01:16;6.30;;;5.80;;
65370;SDS011;58485;59.934;30.352;2022-07-23T05:02:08;5.88;;;5.57;;
65370;SDS011;58485;59.934;30.352;2022-07-23T05:02:59;6.28;;;5.80;;
65370;SDS011;58485;59.934;30.352;2022-07-23T05:03:52;5.65;;;5.22;;
65370;SDS011;58485;59.934;30.352;2022-07-23T05:04:44;6.22;;;5.82;;
65370;SDS011;58485;59.934;30.352;2022-07-23T05:05:36;5.47;;;5.18;;
65370;SDS011;58485;59.934;30.352;2022-07-23T05:06:27;5.80;;;5.40;;
65370;SDS011;58485;59.934;30.352;2022-07-23T05:07:20;6.15;;;5.78;;
65370;SDS011;58485;59.934;30.352;2022-07-23T05:08:11;5.97;;;5.57;;